EWG1CN EDDB-LFKB
Flight info
| Callsign | EWG1CN |
|---|---|
| Flight time | 1h 45m |
| Altitude | 36000 |
| Route | LUROS2Q LUROS Y211 BEBKU Z36 MAREM DCT PEMEL DCT RUDAP DCT BAMTA DCT RADIZ DCT DETSA DCT BOA DCT TIPNI DCT MAREL DCT ELB L146 MOULE |
| Aircraft | A320/M-SDE3FGHIRWY/LB1 |
Departure
| Time | 2026-05-05 09:22 |
|---|---|
| Airport | Berlin Brandenburg Airport (EDDB) |
Arrival
| Time | 2026-05-05 11:07 |
|---|---|
| Airport | Bastia-Poretta International airport (LFKB) |
| Time | Latitude | Longitude | Altitude | Speed | Heading |
|---|---|---|---|---|---|
| 2026-05-05 09:06 | 52.36059 | 13.50802 | 155 ft | 0 kts | 69° |
| 2026-05-05 09:14 | 52.36053 | 13.50776 | 154 ft | 4 kts | 69° |
| 2026-05-05 09:14 | 52.36043 | 13.50735 | 154 ft | 3 kts | 69° |
| 2026-05-05 09:14 | 52.36036 | 13.50702 | 153 ft | 4 kts | 84° |
| 2026-05-05 09:14 | 52.36040 | 13.50663 | 153 ft | 4 kts | 132° |
| 2026-05-05 09:15 | 52.36051 | 13.50649 | 153 ft | 1 kts | 159° |
| 2026-05-05 09:17 | 52.36029 | 13.50663 | 153 ft | 8 kts | 159° |
| 2026-05-05 09:17 | 52.35969 | 13.50700 | 152 ft | 12 kts | 159° |
| 2026-05-05 09:17 | 52.35879 | 13.50757 | 152 ft | 15 kts | 158° |
| 2026-05-05 09:17 | 52.35805 | 13.50723 | 149 ft | 13 kts | 232° |
| 2026-05-05 09:18 | 52.35765 | 13.50591 | 148 ft | 12 kts | 250° |
| 2026-05-05 09:18 | 52.35726 | 13.50424 | 148 ft | 20 kts | 250° |
| 2026-05-05 09:18 | 52.35669 | 13.50180 | 148 ft | 24 kts | 249° |
| 2026-05-05 09:18 | 52.35605 | 13.49920 | 148 ft | 25 kts | 249° |
| 2026-05-05 09:19 | 52.35540 | 13.49646 | 148 ft | 26 kts | 248° |
| 2026-05-05 09:19 | 52.35473 | 13.49361 | 148 ft | 27 kts | 249° |
| 2026-05-05 09:19 | 52.35403 | 13.49065 | 148 ft | 28 kts | 248° |
| 2026-05-05 09:19 | 52.35333 | 13.48774 | 148 ft | 25 kts | 250° |
| 2026-05-05 09:20 | 52.35277 | 13.48534 | 149 ft | 18 kts | 246° |
| 2026-05-05 09:20 | 52.35181 | 13.48502 | 149 ft | 14 kts | 158° |
| 2026-05-05 09:20 | 52.35114 | 13.48569 | 152 ft | 9 kts | 125° |
| 2026-05-05 09:20 | 52.35099 | 13.48650 | 154 ft | 10 kts | 101° |
| 2026-05-05 09:21 | 52.35078 | 13.48844 | 156 ft | 22 kts | 100° |
| 2026-05-05 09:21 | 52.35079 | 13.49099 | 158 ft | 25 kts | 72° |
| 2026-05-05 09:21 | 52.35210 | 13.49653 | 157 ft | 88 kts | 69° |
| 2026-05-05 09:21 | 52.35509 | 13.50912 | 161 ft | 147 kts | 69° |
| 2026-05-05 09:22 | 52.35903 | 13.52639 | 509 ft | 164 kts | 78° |
| 2026-05-05 09:22 | 52.35676 | 13.54414 | 1190 ft | 164 kts | 133° |
| 2026-05-05 09:22 | 52.34807 | 13.55724 | 1613 ft | 180 kts | 143° |
| 2026-05-05 09:22 | 52.33741 | 13.57042 | 1925 ft | 201 kts | 144° |
| 2026-05-05 09:23 | 52.32614 | 13.58423 | 2498 ft | 207 kts | 144° |
| 2026-05-05 09:23 | 52.31482 | 13.59905 | 3154 ft | 210 kts | 133° |
| 2026-05-05 09:23 | 52.30878 | 13.62078 | 3747 ft | 218 kts | 97° |
| 2026-05-05 09:23 | 52.31111 | 13.64602 | 4114 ft | 235 kts | 71° |
| 2026-05-05 09:24 | 52.31443 | 13.67334 | 4446 ft | 258 kts | 95° |
| 2026-05-05 09:24 | 52.30823 | 13.70132 | 4995 ft | 269 kts | 129° |
| 2026-05-05 09:24 | 52.29361 | 13.72001 | 5774 ft | 270 kts | 161° |
| 2026-05-05 09:24 | 52.27516 | 13.72545 | 6670 ft | 270 kts | 177° |
| 2026-05-05 09:25 | 52.25630 | 13.72852 | 7562 ft | 273 kts | 176° |
| 2026-05-05 09:25 | 52.23730 | 13.73195 | 8421 ft | 277 kts | 176° |
| 2026-05-05 09:25 | 52.21808 | 13.73552 | 9236 ft | 280 kts | 176° |
| 2026-05-05 09:25 | 52.19882 | 13.73911 | 10016 ft | 283 kts | 176° |
| 2026-05-05 09:26 | 52.17877 | 13.74280 | 10457 ft | 300 kts | 176° |
| 2026-05-05 09:26 | 52.15720 | 13.74668 | 10681 ft | 322 kts | 176° |
| 2026-05-05 09:26 | 52.13461 | 13.75074 | 11235 ft | 330 kts | 176° |
| 2026-05-05 09:26 | 52.11157 | 13.75491 | 11937 ft | 334 kts | 176° |
| 2026-05-05 09:27 | 52.08827 | 13.75911 | 12673 ft | 337 kts | 176° |
| 2026-05-05 09:27 | 52.06484 | 13.76330 | 13394 ft | 341 kts | 176° |
| 2026-05-05 09:27 | 52.04120 | 13.76752 | 14064 ft | 344 kts | 176° |
| 2026-05-05 09:27 | 52.01730 | 13.77180 | 14696 ft | 346 kts | 176° |
| 2026-05-05 09:28 | 51.99321 | 13.77612 | 15327 ft | 349 kts | 176° |
| 2026-05-05 09:28 | 51.96898 | 13.78043 | 15945 ft | 352 kts | 177° |
| 2026-05-05 09:28 | 51.94457 | 13.78477 | 16568 ft | 355 kts | 177° |
| 2026-05-05 09:28 | 51.92022 | 13.78911 | 17168 ft | 358 kts | 177° |
| 2026-05-05 09:29 | 51.89538 | 13.79352 | 17772 ft | 360 kts | 177° |
| 2026-05-05 09:29 | 51.87032 | 13.79794 | 18347 ft | 364 kts | 177° |
| 2026-05-05 09:29 | 51.84509 | 13.80239 | 18863 ft | 367 kts | 177° |
| 2026-05-05 09:29 | 51.81963 | 13.80689 | 19385 ft | 369 kts | 177° |
| 2026-05-05 09:30 | 51.79396 | 13.81146 | 19908 ft | 372 kts | 177° |
| 2026-05-05 09:30 | 51.76800 | 13.81606 | 20419 ft | 375 kts | 177° |
| 2026-05-05 09:30 | 51.74192 | 13.82065 | 20947 ft | 378 kts | 177° |
| 2026-05-05 09:30 | 51.71564 | 13.82528 | 21463 ft | 381 kts | 177° |
| 2026-05-05 09:31 | 51.68912 | 13.82996 | 21974 ft | 384 kts | 177° |
| 2026-05-05 09:31 | 51.66273 | 13.83459 | 22467 ft | 387 kts | 177° |
| 2026-05-05 09:31 | 51.63584 | 13.83926 | 22956 ft | 390 kts | 177° |
| 2026-05-05 09:31 | 51.60865 | 13.84400 | 23427 ft | 393 kts | 177° |
| 2026-05-05 09:32 | 51.58134 | 13.84877 | 23824 ft | 396 kts | 177° |
| 2026-05-05 09:32 | 51.55375 | 13.85358 | 24209 ft | 399 kts | 178° |
| 2026-05-05 09:32 | 51.52600 | 13.85842 | 24591 ft | 402 kts | 178° |
| 2026-05-05 09:32 | 51.49847 | 13.86322 | 24961 ft | 404 kts | 178° |
| 2026-05-05 09:33 | 51.47038 | 13.86762 | 25320 ft | 405 kts | 181° |
| 2026-05-05 09:33 | 51.44229 | 13.86604 | 25664 ft | 403 kts | 191° |
| 2026-05-05 09:33 | 51.41458 | 13.85844 | 26016 ft | 404 kts | 194° |
| 2026-05-05 09:33 | 51.38680 | 13.85030 | 26366 ft | 406 kts | 194° |
| 2026-05-05 09:34 | 51.36835 | 13.84493 | 26599 ft | 408 kts | 194° |
| 2026-05-05 09:34 | 51.33126 | 13.83419 | 27046 ft | 411 kts | 194° |
| 2026-05-05 09:34 | 51.30310 | 13.82607 | 27382 ft | 413 kts | 194° |
| 2026-05-05 09:34 | 51.27473 | 13.81790 | 27710 ft | 415 kts | 194° |
| 2026-05-05 09:35 | 51.24621 | 13.80971 | 28039 ft | 417 kts | 194° |
| 2026-05-05 09:35 | 51.19851 | 13.79605 | 28562 ft | 421 kts | 194° |
| 2026-05-05 09:35 | 51.16950 | 13.78775 | 28869 ft | 423 kts | 194° |
| 2026-05-05 09:36 | 51.13061 | 13.77662 | 29258 ft | 426 kts | 194° |
| 2026-05-05 09:36 | 51.11118 | 13.77109 | 29445 ft | 427 kts | 194° |
| 2026-05-05 09:36 | 51.08187 | 13.76275 | 29734 ft | 429 kts | 194° |
| 2026-05-05 09:36 | 51.05241 | 13.75436 | 29994 ft | 431 kts | 194° |
| 2026-05-05 09:37 | 51.02288 | 13.74596 | 30228 ft | 433 kts | 194° |
| 2026-05-05 09:37 | 50.99351 | 13.73762 | 30459 ft | 434 kts | 194° |
| 2026-05-05 09:37 | 50.96375 | 13.72917 | 30683 ft | 435 kts | 194° |
| 2026-05-05 09:37 | 50.93384 | 13.72069 | 30900 ft | 436 kts | 194° |
| 2026-05-05 09:38 | 50.90391 | 13.71217 | 31181 ft | 435 kts | 194° |
| 2026-05-05 09:38 | 50.87476 | 13.70077 | 31505 ft | 431 kts | 199° |
| 2026-05-05 09:38 | 50.84595 | 13.68763 | 31825 ft | 430 kts | 199° |
| 2026-05-05 09:38 | 50.81726 | 13.67464 | 32143 ft | 428 kts | 199° |
| 2026-05-05 09:39 | 50.78862 | 13.66173 | 32458 ft | 427 kts | 199° |
| 2026-05-05 09:39 | 50.76013 | 13.64896 | 32791 ft | 425 kts | 199° |
| 2026-05-05 09:39 | 50.73170 | 13.63618 | 33121 ft | 424 kts | 199° |
| 2026-05-05 09:39 | 50.70299 | 13.62558 | 33436 ft | 425 kts | 193° |
| 2026-05-05 09:40 | 50.67418 | 13.61829 | 33757 ft | 424 kts | 193° |
| 2026-05-05 09:40 | 50.64508 | 13.61099 | 34047 ft | 423 kts | 193° |
| 2026-05-05 09:40 | 50.61598 | 13.60369 | 34306 ft | 422 kts | 193° |
| 2026-05-05 09:40 | 50.58699 | 13.59639 | 34558 ft | 421 kts | 193° |
| 2026-05-05 09:41 | 50.55806 | 13.58906 | 34796 ft | 421 kts | 193° |
| 2026-05-05 09:41 | 50.52917 | 13.58176 | 35025 ft | 420 kts | 193° |
| 2026-05-05 09:41 | 50.50037 | 13.57450 | 35250 ft | 420 kts | 193° |
| 2026-05-05 09:41 | 50.47183 | 13.56732 | 35470 ft | 419 kts | 193° |
| 2026-05-05 09:42 | 50.44306 | 13.56006 | 35673 ft | 419 kts | 193° |
| 2026-05-05 09:42 | 50.41425 | 13.55278 | 35828 ft | 419 kts | 193° |
| 2026-05-05 09:42 | 50.35683 | 13.53838 | 35862 ft | 416 kts | 193° |
| 2026-05-05 09:43 | 50.29955 | 13.52411 | 35845 ft | 416 kts | 192° |
| 2026-05-05 09:43 | 50.24275 | 13.50997 | 35854 ft | 416 kts | 192° |
| 2026-05-05 09:44 | 50.18554 | 13.49563 | 35847 ft | 416 kts | 192° |
| 2026-05-05 09:44 | 50.12829 | 13.48142 | 35852 ft | 416 kts | 192° |
| 2026-05-05 09:45 | 50.07137 | 13.46741 | 35845 ft | 416 kts | 192° |
| 2026-05-05 09:45 | 50.01403 | 13.45335 | 35846 ft | 416 kts | 192° |
| 2026-05-05 09:46 | 49.95679 | 13.43924 | 35848 ft | 417 kts | 192° |
| 2026-05-05 09:46 | 49.89950 | 13.42506 | 35843 ft | 417 kts | 194° |
| 2026-05-05 09:47 | 49.84217 | 13.41098 | 35853 ft | 417 kts | 192° |
| 2026-05-05 09:47 | 49.78510 | 13.39707 | 35858 ft | 417 kts | 192° |
| 2026-05-05 09:48 | 49.72759 | 13.38304 | 35859 ft | 417 kts | 192° |
| 2026-05-05 09:48 | 49.67009 | 13.36904 | 35862 ft | 418 kts | 192° |
| 2026-05-05 09:49 | 49.61299 | 13.35528 | 35861 ft | 418 kts | 192° |
| 2026-05-05 09:49 | 49.55550 | 13.34134 | 35855 ft | 418 kts | 192° |
| 2026-05-05 09:50 | 49.49794 | 13.32732 | 35852 ft | 418 kts | 192° |
| 2026-05-05 09:50 | 49.44047 | 13.31347 | 35846 ft | 418 kts | 192° |
| 2026-05-05 09:51 | 49.38332 | 13.29973 | 35841 ft | 418 kts | 192° |
| 2026-05-05 09:51 | 49.32578 | 13.28591 | 35836 ft | 418 kts | 192° |
| 2026-05-05 09:52 | 49.26830 | 13.27215 | 35841 ft | 418 kts | 192° |
| 2026-05-05 09:52 | 49.21244 | 13.24922 | 35841 ft | 415 kts | 198° |
| 2026-05-05 09:53 | 49.15692 | 13.22623 | 35837 ft | 416 kts | 197° |
| 2026-05-05 09:53 | 49.10084 | 13.20364 | 35842 ft | 416 kts | 198° |
| 2026-05-05 09:54 | 49.04493 | 13.18046 | 35838 ft | 416 kts | 198° |
| 2026-05-05 09:54 | 48.98904 | 13.15691 | 35837 ft | 416 kts | 198° |
| 2026-05-05 09:55 | 48.93349 | 13.13354 | 35838 ft | 416 kts | 198° |
| 2026-05-05 09:55 | 48.87757 | 13.11018 | 35836 ft | 416 kts | 198° |
| 2026-05-05 09:56 | 48.82161 | 13.08692 | 35833 ft | 417 kts | 198° |
| 2026-05-05 09:56 | 48.76586 | 13.06389 | 35832 ft | 417 kts | 198° |
| 2026-05-05 09:57 | 48.70976 | 13.04067 | 35831 ft | 417 kts | 198° |
| 2026-05-05 09:57 | 48.65365 | 13.01744 | 35835 ft | 417 kts | 198° |
| 2026-05-05 09:58 | 48.59750 | 12.99427 | 35829 ft | 418 kts | 198° |
| 2026-05-05 09:58 | 48.54180 | 12.97136 | 35829 ft | 418 kts | 198° |
| 2026-05-05 09:59 | 48.48560 | 12.94831 | 35830 ft | 418 kts | 198° |
| 2026-05-05 09:59 | 48.42947 | 12.92534 | 35830 ft | 418 kts | 198° |
| 2026-05-05 10:00 | 48.37358 | 12.90247 | 35829 ft | 418 kts | 198° |
| 2026-05-05 10:00 | 48.31736 | 12.87954 | 35833 ft | 418 kts | 198° |
| 2026-05-05 10:01 | 48.26125 | 12.85674 | 35836 ft | 418 kts | 198° |
| 2026-05-05 10:01 | 48.20509 | 12.83396 | 35839 ft | 417 kts | 198° |
| 2026-05-05 10:02 | 48.14934 | 12.81132 | 35839 ft | 417 kts | 197° |
| 2026-05-05 10:02 | 48.09322 | 12.78871 | 35842 ft | 417 kts | 197° |
| 2026-05-05 10:03 | 48.03718 | 12.76618 | 35847 ft | 417 kts | 197° |
| 2026-05-05 10:03 | 47.98122 | 12.74362 | 35852 ft | 417 kts | 197° |
| 2026-05-05 10:04 | 47.92524 | 12.72116 | 35859 ft | 416 kts | 197° |
| 2026-05-05 10:04 | 47.86931 | 12.69880 | 35858 ft | 416 kts | 197° |
| 2026-05-05 10:05 | 47.81338 | 12.67646 | 35856 ft | 416 kts | 197° |
| 2026-05-05 10:05 | 47.75774 | 12.65437 | 35852 ft | 416 kts | 197° |
| 2026-05-05 10:06 | 47.70179 | 12.63211 | 35846 ft | 416 kts | 197° |
| 2026-05-05 10:06 | 47.64579 | 12.60984 | 35839 ft | 416 kts | 197° |
| 2026-05-05 10:07 | 47.59022 | 12.58774 | 35841 ft | 416 kts | 197° |
| 2026-05-05 10:07 | 47.53432 | 12.56567 | 35843 ft | 416 kts | 197° |
| 2026-05-05 10:08 | 47.47820 | 12.54368 | 35849 ft | 416 kts | 197° |
| 2026-05-05 10:08 | 47.42238 | 12.52175 | 35855 ft | 416 kts | 197° |
| 2026-05-05 10:09 | 47.36680 | 12.49989 | 35865 ft | 415 kts | 197° |
| 2026-05-05 10:09 | 47.31081 | 12.47807 | 35884 ft | 415 kts | 197° |
| 2026-05-05 10:10 | 47.25496 | 12.45630 | 35898 ft | 415 kts | 197° |
| 2026-05-05 10:10 | 47.19915 | 12.43449 | 35911 ft | 415 kts | 197° |
| 2026-05-05 10:11 | 47.14337 | 12.41281 | 35914 ft | 414 kts | 197° |
| 2026-05-05 10:11 | 47.08803 | 12.39133 | 35928 ft | 414 kts | 197° |
| 2026-05-05 10:12 | 47.03229 | 12.36972 | 35958 ft | 414 kts | 197° |
| 2026-05-05 10:12 | 46.97655 | 12.34806 | 35992 ft | 413 kts | 197° |
| 2026-05-05 10:13 | 46.92124 | 12.32668 | 36015 ft | 413 kts | 197° |
| 2026-05-05 10:13 | 46.86558 | 12.30523 | 36041 ft | 413 kts | 197° |
| 2026-05-05 10:14 | 46.80993 | 12.28385 | 36065 ft | 413 kts | 197° |
| 2026-05-05 10:14 | 46.75460 | 12.26074 | 36059 ft | 412 kts | 199° |
| 2026-05-05 10:15 | 46.69996 | 12.23520 | 36058 ft | 412 kts | 200° |
| 2026-05-05 10:15 | 46.64569 | 12.20973 | 36052 ft | 412 kts | 199° |
| 2026-05-05 10:16 | 46.59088 | 12.18469 | 36051 ft | 412 kts | 199° |
| 2026-05-05 10:16 | 46.53588 | 12.15998 | 36033 ft | 412 kts | 199° |
| 2026-05-05 10:17 | 46.48106 | 12.13537 | 36015 ft | 412 kts | 199° |
| 2026-05-05 10:17 | 46.42658 | 12.11087 | 36007 ft | 412 kts | 199° |
| 2026-05-05 10:18 | 46.37167 | 12.08623 | 35995 ft | 412 kts | 199° |
| 2026-05-05 10:18 | 46.31682 | 12.06161 | 36005 ft | 412 kts | 199° |
| 2026-05-05 10:19 | 46.26198 | 12.03705 | 36008 ft | 412 kts | 199° |
| 2026-05-05 10:19 | 46.20741 | 12.01272 | 36010 ft | 413 kts | 199° |
| 2026-05-05 10:20 | 46.15247 | 11.98838 | 36013 ft | 413 kts | 199° |
| 2026-05-05 10:20 | 46.09788 | 11.96410 | 36018 ft | 413 kts | 199° |
| 2026-05-05 10:21 | 46.04303 | 11.93970 | 36023 ft | 412 kts | 199° |
| 2026-05-05 10:21 | 45.98811 | 11.91534 | 36022 ft | 413 kts | 199° |
| 2026-05-05 10:22 | 45.93320 | 11.89109 | 36026 ft | 413 kts | 199° |
| 2026-05-05 10:22 | 45.87825 | 11.86678 | 36027 ft | 412 kts | 199° |
| 2026-05-05 10:23 | 45.82372 | 11.84285 | 36029 ft | 412 kts | 199° |
| 2026-05-05 10:23 | 45.76883 | 11.81888 | 36029 ft | 412 kts | 199° |
| 2026-05-05 10:24 | 45.71408 | 11.79391 | 36027 ft | 412 kts | 201° |
| 2026-05-05 10:24 | 45.65995 | 11.76687 | 36028 ft | 412 kts | 202° |
| 2026-05-05 10:25 | 45.60595 | 11.73956 | 36028 ft | 412 kts | 201° |
| 2026-05-05 10:25 | 45.55182 | 11.71274 | 36028 ft | 412 kts | 201° |
| 2026-05-05 10:26 | 45.49797 | 11.68633 | 36026 ft | 412 kts | 201° |
| 2026-05-05 10:26 | 45.44369 | 11.65984 | 36030 ft | 412 kts | 201° |
| 2026-05-05 10:27 | 45.38949 | 11.63348 | 36031 ft | 412 kts | 201° |
| 2026-05-05 10:27 | 45.33534 | 11.60705 | 36028 ft | 411 kts | 202° |
| 2026-05-05 10:28 | 45.28147 | 11.58077 | 36025 ft | 411 kts | 202° |
| 2026-05-05 10:28 | 45.22726 | 11.55440 | 36020 ft | 411 kts | 202° |
| 2026-05-05 10:29 | 45.17305 | 11.52818 | 36015 ft | 411 kts | 202° |
| 2026-05-05 10:29 | 45.11920 | 11.50210 | 36005 ft | 411 kts | 202° |
| 2026-05-05 10:30 | 45.06499 | 11.47591 | 36004 ft | 411 kts | 202° |
| 2026-05-05 10:30 | 45.02000 | 11.45418 | 36000 ft | 411 kts | 202° |
| 2026-05-05 10:31 | 44.96565 | 11.42798 | 35995 ft | 412 kts | 202° |
| 2026-05-05 10:31 | 44.91143 | 11.40197 | 35994 ft | 412 kts | 202° |
| 2026-05-05 10:32 | 44.86189 | 11.37821 | 35989 ft | 412 kts | 202° |
| 2026-05-05 10:32 | 44.80793 | 11.35252 | 35990 ft | 412 kts | 202° |
| 2026-05-05 10:33 | 44.75356 | 11.32656 | 35989 ft | 412 kts | 203° |
| 2026-05-05 10:33 | 44.69925 | 11.30058 | 35989 ft | 412 kts | 203° |
| 2026-05-05 10:34 | 44.64484 | 11.27471 | 35995 ft | 413 kts | 203° |
| 2026-05-05 10:34 | 44.59039 | 11.24893 | 35996 ft | 413 kts | 203° |
| 2026-05-05 10:35 | 44.53601 | 11.22307 | 35996 ft | 412 kts | 205° |
| 2026-05-05 10:35 | 44.48555 | 11.18773 | 35999 ft | 407 kts | 212° |
| 2026-05-05 10:36 | 44.43542 | 11.15050 | 36004 ft | 407 kts | 212° |
| 2026-05-05 10:36 | 44.38533 | 11.11338 | 36007 ft | 407 kts | 212° |
| 2026-05-05 10:37 | 44.33524 | 11.07642 | 36019 ft | 406 kts | 212° |
| 2026-05-05 10:37 | 44.28528 | 11.03974 | 36034 ft | 406 kts | 212° |
| 2026-05-05 10:38 | 44.23527 | 11.00302 | 36047 ft | 405 kts | 212° |
| 2026-05-05 10:38 | 44.18578 | 10.96663 | 36042 ft | 404 kts | 212° |
| 2026-05-05 10:39 | 44.13596 | 10.93010 | 36032 ft | 404 kts | 212° |
| 2026-05-05 10:39 | 44.08609 | 10.89369 | 36027 ft | 405 kts | 212° |
| 2026-05-05 10:40 | 44.03607 | 10.85728 | 35982 ft | 406 kts | 212° |
| 2026-05-05 10:40 | 44.01105 | 10.83905 | 35715 ft | 407 kts | 212° |
| 2026-05-05 10:40 | 43.98591 | 10.82075 | 35460 ft | 407 kts | 212° |
| 2026-05-05 10:41 | 43.96082 | 10.80253 | 35212 ft | 407 kts | 212° |
| 2026-05-05 10:41 | 43.93596 | 10.78450 | 34962 ft | 408 kts | 212° |
| 2026-05-05 10:41 | 43.91079 | 10.76623 | 34716 ft | 408 kts | 212° |
| 2026-05-05 10:41 | 43.88564 | 10.74798 | 34477 ft | 408 kts | 212° |
| 2026-05-05 10:42 | 43.83559 | 10.71171 | 33986 ft | 403 kts | 212° |
| 2026-05-05 10:42 | 43.81086 | 10.69382 | 33520 ft | 398 kts | 212° |
| 2026-05-05 10:42 | 43.78647 | 10.67619 | 33020 ft | 393 kts | 212° |
| 2026-05-05 10:43 | 43.76232 | 10.65873 | 32525 ft | 389 kts | 212° |
| 2026-05-05 10:43 | 43.73846 | 10.64152 | 32040 ft | 386 kts | 212° |
| 2026-05-05 10:43 | 43.71474 | 10.62447 | 31558 ft | 382 kts | 212° |
| 2026-05-05 10:43 | 43.69152 | 10.60779 | 31089 ft | 379 kts | 212° |
| 2026-05-05 10:44 | 43.66816 | 10.59098 | 30621 ft | 376 kts | 212° |
| 2026-05-05 10:44 | 43.64506 | 10.57436 | 30157 ft | 373 kts | 212° |
| 2026-05-05 10:44 | 43.62232 | 10.55802 | 29655 ft | 370 kts | 212° |
| 2026-05-05 10:44 | 43.59958 | 10.54171 | 29206 ft | 366 kts | 212° |
| 2026-05-05 10:45 | 43.57713 | 10.52562 | 28774 ft | 362 kts | 212° |
| 2026-05-05 10:45 | 43.55490 | 10.50970 | 28341 ft | 358 kts | 211° |
| 2026-05-05 10:45 | 43.53293 | 10.49400 | 27921 ft | 354 kts | 211° |
| 2026-05-05 10:45 | 43.51117 | 10.47848 | 27511 ft | 350 kts | 211° |
| 2026-05-05 10:46 | 43.48961 | 10.46310 | 27104 ft | 347 kts | 211° |
| 2026-05-05 10:46 | 43.46828 | 10.44785 | 26715 ft | 343 kts | 211° |
| 2026-05-05 10:46 | 43.44712 | 10.43270 | 26324 ft | 339 kts | 211° |
| 2026-05-05 10:46 | 43.42656 | 10.41798 | 25942 ft | 336 kts | 211° |
| 2026-05-05 10:47 | 43.40587 | 10.40326 | 25556 ft | 333 kts | 211° |
| 2026-05-05 10:47 | 43.38533 | 10.38869 | 25173 ft | 329 kts | 211° |
| 2026-05-05 10:47 | 43.36500 | 10.37426 | 24783 ft | 326 kts | 211° |
| 2026-05-05 10:47 | 43.34513 | 10.36014 | 24393 ft | 324 kts | 211° |
| 2026-05-05 10:48 | 43.32491 | 10.34578 | 23987 ft | 323 kts | 211° |
| 2026-05-05 10:48 | 43.30525 | 10.33181 | 23594 ft | 321 kts | 211° |
| 2026-05-05 10:48 | 43.28548 | 10.31776 | 23146 ft | 319 kts | 211° |
| 2026-05-05 10:48 | 43.26588 | 10.30388 | 22742 ft | 316 kts | 211° |
| 2026-05-05 10:49 | 43.24637 | 10.29008 | 22344 ft | 313 kts | 211° |
| 2026-05-05 10:49 | 43.22706 | 10.27644 | 21948 ft | 311 kts | 211° |
| 2026-05-05 10:49 | 43.20804 | 10.26302 | 21565 ft | 310 kts | 211° |
| 2026-05-05 10:49 | 43.18890 | 10.24950 | 21175 ft | 308 kts | 211° |
| 2026-05-05 10:50 | 43.16992 | 10.23609 | 20786 ft | 306 kts | 211° |
| 2026-05-05 10:50 | 43.15112 | 10.22282 | 20402 ft | 304 kts | 211° |
| 2026-05-05 10:50 | 43.13230 | 10.20957 | 20019 ft | 302 kts | 210° |
| 2026-05-05 10:50 | 43.11365 | 10.19645 | 19641 ft | 300 kts | 210° |
| 2026-05-05 10:51 | 43.09509 | 10.18338 | 19264 ft | 299 kts | 210° |
| 2026-05-05 10:51 | 43.07664 | 10.17038 | 18888 ft | 298 kts | 210° |
| 2026-05-05 10:51 | 43.05823 | 10.15742 | 18517 ft | 297 kts | 210° |
| 2026-05-05 10:51 | 43.03986 | 10.14451 | 18132 ft | 296 kts | 210° |
| 2026-05-05 10:52 | 43.02182 | 10.13181 | 17751 ft | 294 kts | 210° |
| 2026-05-05 10:52 | 43.00365 | 10.11906 | 17379 ft | 292 kts | 210° |
| 2026-05-05 10:52 | 42.98559 | 10.10640 | 17024 ft | 290 kts | 210° |
| 2026-05-05 10:52 | 42.96767 | 10.09385 | 16666 ft | 289 kts | 210° |
| 2026-05-05 10:53 | 42.94987 | 10.08141 | 16317 ft | 287 kts | 210° |
| 2026-05-05 10:53 | 42.93210 | 10.06902 | 15965 ft | 286 kts | 210° |
| 2026-05-05 10:53 | 42.91440 | 10.05665 | 15618 ft | 285 kts | 210° |
| 2026-05-05 10:53 | 42.89678 | 10.04434 | 15270 ft | 284 kts | 210° |
| 2026-05-05 10:54 | 42.87921 | 10.03205 | 14921 ft | 283 kts | 210° |
| 2026-05-05 10:54 | 42.86167 | 10.01978 | 14576 ft | 283 kts | 210° |
| 2026-05-05 10:54 | 42.84415 | 10.00756 | 14231 ft | 282 kts | 210° |
| 2026-05-05 10:54 | 42.82667 | 9.99540 | 13886 ft | 282 kts | 210° |
| 2026-05-05 10:55 | 42.80922 | 9.98326 | 13505 ft | 282 kts | 210° |
| 2026-05-05 10:55 | 42.79191 | 9.97120 | 13153 ft | 280 kts | 210° |
| 2026-05-05 10:55 | 42.77464 | 9.95917 | 12803 ft | 279 kts | 210° |
| 2026-05-05 10:55 | 42.75737 | 9.94716 | 12454 ft | 277 kts | 210° |
| 2026-05-05 10:56 | 42.74018 | 9.93523 | 12098 ft | 276 kts | 210° |
| 2026-05-05 10:56 | 42.72311 | 9.92342 | 11742 ft | 275 kts | 210° |
| 2026-05-05 10:56 | 42.70608 | 9.91160 | 11391 ft | 274 kts | 210° |
| 2026-05-05 10:56 | 42.68912 | 9.89981 | 11039 ft | 273 kts | 210° |
| 2026-05-05 10:57 | 42.67244 | 9.88824 | 10679 ft | 272 kts | 210° |
| 2026-05-05 10:57 | 42.65558 | 9.87656 | 10324 ft | 272 kts | 210° |
| 2026-05-05 10:57 | 42.63902 | 9.86434 | 10096 ft | 270 kts | 216° |
| 2026-05-05 10:57 | 42.62355 | 9.84939 | 9994 ft | 274 kts | 217° |
| 2026-05-05 10:58 | 42.60790 | 9.83422 | 9506 ft | 278 kts | 217° |
| 2026-05-05 10:58 | 42.59228 | 9.81915 | 8955 ft | 275 kts | 217° |
| 2026-05-05 10:58 | 42.57663 | 9.80409 | 8466 ft | 273 kts | 217° |
| 2026-05-05 10:58 | 42.56143 | 9.78951 | 7952 ft | 271 kts | 217° |
| 2026-05-05 10:59 | 42.54589 | 9.77457 | 7423 ft | 272 kts | 217° |
| 2026-05-05 10:59 | 42.53052 | 9.75979 | 6931 ft | 270 kts | 217° |
| 2026-05-05 10:59 | 42.51528 | 9.74514 | 6419 ft | 267 kts | 217° |
| 2026-05-05 10:59 | 42.50010 | 9.73057 | 5903 ft | 267 kts | 217° |
| 2026-05-05 11:00 | 42.48492 | 9.71601 | 5389 ft | 267 kts | 217° |
| 2026-05-05 11:00 | 42.47001 | 9.70173 | 4895 ft | 266 kts | 216° |
| 2026-05-05 11:00 | 42.45502 | 9.68737 | 4586 ft | 257 kts | 216° |
| 2026-05-05 11:00 | 42.44092 | 9.67389 | 4522 ft | 240 kts | 217° |
| 2026-05-05 11:01 | 42.42776 | 9.66133 | 4463 ft | 223 kts | 216° |
| 2026-05-05 11:01 | 42.41801 | 9.65201 | 4374 ft | 213 kts | 217° |
| 2026-05-05 11:01 | 42.40601 | 9.64051 | 4304 ft | 209 kts | 217° |
| 2026-05-05 11:01 | 42.39424 | 9.62919 | 4212 ft | 207 kts | 217° |
| 2026-05-05 11:02 | 42.38261 | 9.61760 | 4117 ft | 207 kts | 224° |
| 2026-05-05 11:02 | 42.37444 | 9.60165 | 3744 ft | 210 kts | 250° |
| 2026-05-05 11:02 | 42.37297 | 9.58272 | 3454 ft | 200 kts | 279° |
| 2026-05-05 11:02 | 42.37785 | 9.56598 | 3327 ft | 185 kts | 304° |
| 2026-05-05 11:03 | 42.38702 | 9.55422 | 3195 ft | 182 kts | 327° |
| 2026-05-05 11:03 | 42.39882 | 9.54805 | 2954 ft | 181 kts | 341° |
| 2026-05-05 11:03 | 42.41069 | 9.54312 | 2723 ft | 180 kts | 341° |
| 2026-05-05 11:03 | 42.42260 | 9.53816 | 2490 ft | 178 kts | 341° |
| 2026-05-05 11:04 | 42.43418 | 9.53332 | 2270 ft | 165 kts | 343° |
| 2026-05-05 11:04 | 42.44474 | 9.52890 | 2021 ft | 153 kts | 343° |
| 2026-05-05 11:04 | 42.45457 | 9.52479 | 1828 ft | 144 kts | 344° |
| 2026-05-05 11:04 | 42.46404 | 9.52085 | 1665 ft | 141 kts | 345° |
| 2026-05-05 11:05 | 42.47337 | 9.51690 | 1477 ft | 139 kts | 345° |
| 2026-05-05 11:05 | 42.48256 | 9.51305 | 1310 ft | 138 kts | 345° |
| 2026-05-05 11:05 | 42.49160 | 9.50916 | 1131 ft | 135 kts | 343° |
| 2026-05-05 11:05 | 42.50050 | 9.50511 | 988 ft | 134 kts | 347° |
| 2026-05-05 11:06 | 42.50959 | 9.50151 | 783 ft | 137 kts | 348° |
| 2026-05-05 11:06 | 42.51876 | 9.49782 | 607 ft | 136 kts | 347° |
| 2026-05-05 11:06 | 42.52774 | 9.49413 | 360 ft | 132 kts | 349° |
| 2026-05-05 11:06 | 42.53663 | 9.49043 | 180 ft | 135 kts | 348° |
| 2026-05-05 11:07 | 42.54545 | 9.48670 | 34 ft | 130 kts | 346° |
| 2026-05-05 11:07 | 42.55274 | 9.48371 | 31 ft | 85 kts | 342° |
| 2026-05-05 11:07 | 42.55691 | 9.48200 | 27 ft | 49 kts | 344° |
| 2026-05-05 11:07 | 42.55925 | 9.48092 | 25 ft | 26 kts | 338° |
| 2026-05-05 11:08 | 42.55964 | 9.48015 | 24 ft | 11 kts | 252° |
| 2026-05-05 11:08 | 42.55926 | 9.47876 | 25 ft | 16 kts | 222° |
| 2026-05-05 11:08 | 42.55827 | 9.47883 | 25 ft | 14 kts | 164° |
| 2026-05-05 11:08 | 42.55742 | 9.47917 | 28 ft | 13 kts | 162° |
| 2026-05-05 11:09 | 42.55622 | 9.47969 | 29 ft | 23 kts | 162° |
| 2026-05-05 11:09 | 42.55450 | 9.48043 | 27 ft | 27 kts | 163° |
| 2026-05-05 11:09 | 42.55265 | 9.48118 | 28 ft | 28 kts | 163° |
| 2026-05-05 11:09 | 42.55080 | 9.48196 | 29 ft | 27 kts | 163° |
| 2026-05-05 11:10 | 42.54925 | 9.48241 | 30 ft | 18 kts | 167° |
| 2026-05-05 11:10 | 42.54808 | 9.48287 | 31 ft | 16 kts | 163° |
| 2026-05-05 11:10 | 42.54729 | 9.48311 | 31 ft | 4 kts | 213° |
| 2026-05-05 11:10 | 42.54725 | 9.48273 | 31 ft | 6 kts | 273° |
| 2026-05-05 11:11 | 42.54735 | 9.48216 | 31 ft | 2 kts | 283° |
| 2026-05-05 11:11 | 42.54738 | 9.48199 | 30 ft | 2 kts | 283° |
| 2026-05-05 11:11 | 42.54738 | 9.48198 | 30 ft | 0 kts | 283° |